High temp

Not for real navigation. The accuracy of this data is not assured See disclaimer for more information



ICAO NAME COUNTRY WIND Kt GUST Kt VIS m TEMP/DEW C BARO METAR
ORMM 18 0 9999 48/1 29.41 ORMM 181200Z 29018KT CAVOK 48/01 Q0996 NOSIG
OIAA Abadan Iran 10 0 7000 48/10 29.38 OIAA 181200Z 30010KT 7000 NSC 48/10 Q0995
OIAG Omidieh Iran 17 0 9999 48/5 29.38 OIAG 181100Z 33017KT CAVOK 48/05 Q0995
OIAM Bandar Mahshahr / Mahshahr Iran 10 0 9999 47/16 29.38 OIAM 181200Z 28010KT CAVOK 47/16 Q0995
OIAW Ahwaz Iran 6 0 9999 47/3 29.35 OIAW 181200Z 30006KT CAVOK 47/03 Q0994 NOSIG

Show more